sensor_id;sensor_type;location;lat;lon;timestamp;P1;durP1;ratioP1;P2;durP2;ratioP2
14472;SDS011;7322;50.872;4.386;2023-12-04T00:01:24;2.60;;;2.40;;
14472;SDS011;7322;50.872;4.386;2023-12-04T00:03:51;2.80;;;2.30;;
14472;SDS011;7322;50.872;4.386;2023-12-04T00:06:18;2.33;;;2.13;;
14472;SDS011;7322;50.872;4.386;2023-12-04T00:08:45;2.27;;;2.07;;
14472;SDS011;7322;50.872;4.386;2023-12-04T00:11:12;3.20;;;2.17;;
14472;SDS011;7322;50.872;4.386;2023-12-04T00:13:39;2.17;;;1.97;;
14472;SDS011;7322;50.872;4.386;2023-12-04T00:16:07;2.70;;;2.20;;
14472;SDS011;7322;50.872;4.386;2023-12-04T00:18:36;3.07;;;2.10;;
14472;SDS011;7322;50.872;4.386;2023-12-04T00:52:58;2.33;;;2.13;;
14472;SDS011;7322;50.872;4.386;2023-12-04T00:55:25;2.40;;;2.10;;
14472;SDS011;7322;50.872;4.386;2023-12-04T00:57:52;2.20;;;2.00;;
14472;SDS011;7322;50.872;4.386;2023-12-04T01:00:19;2.23;;;2.03;;
14472;SDS011;7322;50.872;4.386;2023-12-04T01:02:46;2.80;;;2.27;;
14472;SDS011;7322;50.872;4.386;2023-12-04T01:05:13;2.10;;;1.90;;
14472;SDS011;7322;50.872;4.386;2023-12-04T01:07:40;2.40;;;2.20;;
14472;SDS011;7322;50.872;4.386;2023-12-04T01:10:08;2.20;;;2.00;;
14472;SDS011;7322;50.872;4.386;2023-12-04T01:12:36;2.47;;;2.07;;
14472;SDS011;7322;50.872;4.386;2023-12-04T01:15:04;2.30;;;2.10;;
14472;SDS011;7322;50.872;4.386;2023-12-04T01:17:31;2.77;;;2.43;;
14472;SDS011;7322;50.872;4.386;2023-12-04T01:25:17;2.50;;;2.00;;
14472;SDS011;7322;50.872;4.386;2023-12-04T01:27:45;2.40;;;2.20;;
14472;SDS011;7322;50.872;4.386;2023-12-04T01:30:12;2.30;;;2.03;;
14472;SDS011;7322;50.872;4.386;2023-12-04T01:35:18;2.33;;;2.13;;
14472;SDS011;7322;50.872;4.386;2023-12-04T01:37:48;2.30;;;2.10;;
14472;SDS011;7322;50.872;4.386;2023-12-04T01:40:16;2.03;;;1.80;;
14472;SDS011;7322;50.872;4.386;2023-12-04T01:42:45;3.40;;;2.17;;
14472;SDS011;7322;50.872;4.386;2023-12-04T01:45:12;2.70;;;2.10;;
14472;SDS011;7322;50.872;4.386;2023-12-04T01:47:41;2.03;;;1.83;;
14472;SDS011;7322;50.872;4.386;2023-12-04T01:50:09;2.20;;;2.00;;
14472;SDS011;7322;50.872;4.386;2023-12-04T01:52:36;2.20;;;2.00;;
14472;SDS011;7322;50.872;4.386;2023-12-04T01:55:05;2.30;;;2.10;;
14472;SDS011;7322;50.872;4.386;2023-12-04T01:57:39;2.50;;;2.30;;
14472;SDS011;7322;50.872;4.386;2023-12-04T02:00:08;1.97;;;1.87;;
14472;SDS011;7322;50.872;4.386;2023-12-04T02:02:39;2.07;;;1.97;;
14472;SDS011;7322;50.872;4.386;2023-12-04T02:05:09;2.40;;;2.17;;
14472;SDS011;7322;50.872;4.386;2023-12-04T02:07:43;2.83;;;2.40;;
14472;SDS011;7322;50.872;4.386;2023-12-04T02:10:14;3.60;;;2.13;;
14472;SDS011;7322;50.872;4.386;2023-12-04T02:12:42;2.30;;;2.10;;
14472;SDS011;7322;50.872;4.386;2023-12-04T02:15:10;2.17;;;1.97;;
14472;SDS011;7322;50.872;4.386;2023-12-04T02:17:38;2.10;;;1.83;;
14472;SDS011;7322;50.872;4.386;2023-12-04T02:20:12;2.80;;;2.30;;
14472;SDS011;7322;50.872;4.386;2023-12-04T02:22:41;2.33;;;1.87;;
14472;SDS011;7322;50.872;4.386;2023-12-04T02:28:06;2.40;;;2.20;;
14472;SDS011;7322;50.872;4.386;2023-12-04T02:30:45;2.27;;;1.97;;
14472;SDS011;7322;50.872;4.386;2023-12-04T02:36:15;1.80;;;1.70;;
14472;SDS011;7322;50.872;4.386;2023-12-04T02:41:18;2.77;;;2.10;;
14472;SDS011;7322;50.872;4.386;2023-12-04T02:43:46;2.53;;;2.03;;
14472;SDS011;7322;50.872;4.386;2023-12-04T02:46:14;1.80;;;1.70;;
14472;SDS011;7322;50.872;4.386;2023-12-04T02:51:47;3.20;;;2.10;;
14472;SDS011;7322;50.872;4.386;2023-12-04T02:54:27;2.17;;;1.97;;
14472;SDS011;7322;50.872;4.386;2023-12-04T02:57:02;2.03;;;1.83;;
14472;SDS011;7322;50.872;4.386;2023-12-04T02:59:46;2.83;;;2.13;;
14472;SDS011;7322;50.872;4.386;2023-12-04T03:02:13;2.60;;;2.10;;
14472;SDS011;7322;50.872;4.386;2023-12-04T03:04:41;2.73;;;2.07;;
14472;SDS011;7322;50.872;4.386;2023-12-04T03:07:09;2.20;;;1.90;;
14472;SDS011;7322;50.872;4.386;2023-12-04T03:09:37;2.20;;;2.00;;
14472;SDS011;7322;50.872;4.386;2023-12-04T03:12:05;2.57;;;2.10;;
14472;SDS011;7322;50.872;4.386;2023-12-04T03:14:33;2.13;;;1.93;;
14472;SDS011;7322;50.872;4.386;2023-12-04T03:17:01;2.00;;;1.80;;
14472;SDS011;7322;50.872;4.386;2023-12-04T03:22:44;1.97;;;1.77;;
14472;SDS011;7322;50.872;4.386;2023-12-04T03:25:19;2.20;;;2.00;;
14472;SDS011;7322;50.872;4.386;2023-12-04T03:27:52;2.00;;;1.80;;
14472;SDS011;7322;50.872;4.386;2023-12-04T03:35:54;2.13;;;1.93;;
14472;SDS011;7322;50.872;4.386;2023-12-04T03:38:29;2.20;;;1.80;;
14472;SDS011;7322;50.872;4.386;2023-12-04T03:40:58;3.13;;;2.20;;
14472;SDS011;7322;50.872;4.386;2023-12-04T03:43:28;2.17;;;1.97;;
14472;SDS011;7322;50.872;4.386;2023-12-04T03:46:04;2.73;;;1.97;;
14472;SDS011;7322;50.872;4.386;2023-12-04T03:48:33;2.07;;;1.87;;
14472;SDS011;7322;50.872;4.386;2023-12-04T03:51:04;2.10;;;1.90;;
14472;SDS011;7322;50.872;4.386;2023-12-04T03:53:32;2.63;;;1.97;;
14472;SDS011;7322;50.872;4.386;2023-12-04T03:56:06;2.10;;;1.90;;
14472;SDS011;7322;50.872;4.386;2023-12-04T03:58:48;1.90;;;1.80;;
14472;SDS011;7322;50.872;4.386;2023-12-04T04:01:16;2.03;;;1.83;;
14472;SDS011;7322;50.872;4.386;2023-12-04T04:03:44;2.40;;;2.20;;
14472;SDS011;7322;50.872;4.386;2023-12-04T04:06:12;2.00;;;1.80;;
14472;SDS011;7322;50.872;4.386;2023-12-04T04:08:39;1.93;;;1.80;;
14472;SDS011;7322;50.872;4.386;2023-12-04T04:11:14;1.90;;;1.80;;
14472;SDS011;7322;50.872;4.386;2023-12-04T04:13:43;1.87;;;1.70;;
14472;SDS011;7322;50.872;4.386;2023-12-04T04:19:48;2.17;;;1.90;;
14472;SDS011;7322;50.872;4.386;2023-12-04T04:22:21;1.93;;;1.70;;
14472;SDS011;7322;50.872;4.386;2023-12-04T04:27:40;2.27;;;2.07;;
14472;SDS011;7322;50.872;4.386;2023-12-04T04:30:08;2.20;;;2.00;;
14472;SDS011;7322;50.872;4.386;2023-12-04T04:32:37;2.00;;;1.80;;
14472;SDS011;7322;50.872;4.386;2023-12-04T04:37:38;1.90;;;1.70;;
14472;SDS011;7322;50.872;4.386;2023-12-04T04:40:06;1.70;;;1.60;;
14472;SDS011;7322;50.872;4.386;2023-12-04T04:42:34;2.17;;;1.90;;
14472;SDS011;7322;50.872;4.386;2023-12-04T04:45:07;2.80;;;1.90;;
14472;SDS011;7322;50.872;4.386;2023-12-04T04:47:37;2.07;;;1.87;;
14472;SDS011;7322;50.872;4.386;2023-12-04T04:50:04;1.63;;;1.53;;
14472;SDS011;7322;50.872;4.386;2023-12-04T04:52:33;1.90;;;1.60;;
14472;SDS011;7322;50.872;4.386;2023-12-04T04:57:35;2.57;;;1.73;;
14472;SDS011;7322;50.872;4.386;2023-12-04T05:00:04;2.00;;;1.80;;
14472;SDS011;7322;50.872;4.386;2023-12-04T05:02:32;2.00;;;1.80;;
14472;SDS011;7322;50.872;4.386;2023-12-04T05:05:02;2.00;;;1.80;;
14472;SDS011;7322;50.872;4.386;2023-12-04T05:10:20;1.93;;;1.83;;
14472;SDS011;7322;50.872;4.386;2023-12-04T05:12:59;1.70;;;1.57;;
14472;SDS011;7322;50.872;4.386;2023-12-04T05:15:37;2.17;;;1.90;;
14472;SDS011;7322;50.872;4.386;2023-12-04T05:18:12;1.90;;;1.70;;
14472;SDS011;7322;50.872;4.386;2023-12-04T05:20:50;1.80;;;1.60;;
14472;SDS011;7322;50.872;4.386;2023-12-04T05:23:19;1.93;;;1.70;;
14472;SDS011;7322;50.872;4.386;2023-12-04T05:25:46;1.80;;;1.60;;
14472;SDS011;7322;50.872;4.386;2023-12-04T05:31:15;1.67;;;1.57;;
14472;SDS011;7322;50.872;4.386;2023-12-04T05:33:42;1.63;;;1.53;;
14472;SDS011;7322;50.872;4.386;2023-12-04T05:36:13;2.00;;;1.80;;
14472;SDS011;7322;50.872;4.386;2023-12-04T05:41:13;1.60;;;1.50;;
14472;SDS011;7322;50.872;4.386;2023-12-04T05:43:40;1.90;;;1.80;;
14472;SDS011;7322;50.872;4.386;2023-12-04T05:49:04;1.70;;;1.60;;
14472;SDS011;7322;50.872;4.386;2023-12-04T05:59:48;1.57;;;1.47;;
14472;SDS011;7322;50.872;4.386;2023-12-04T06:02:15;2.10;;;1.90;;
14472;SDS011;7322;50.872;4.386;2023-12-04T06:04:42;1.53;;;1.43;;
14472;SDS011;7322;50.872;4.386;2023-12-04T06:07:12;1.87;;;1.67;;
14472;SDS011;7322;50.872;4.386;2023-12-04T06:12:28;2.20;;;1.60;;
14472;SDS011;7322;50.872;4.386;2023-12-04T06:15:03;1.40;;;1.30;;
14472;SDS011;7322;50.872;4.386;2023-12-04T06:17:31;1.40;;;1.30;;
14472;SDS011;7322;50.872;4.386;2023-12-04T06:19:58;1.43;;;1.33;;
14472;SDS011;7322;50.872;4.386;2023-12-04T06:22:25;1.40;;;1.30;;
14472;SDS011;7322;50.872;4.386;2023-12-04T06:24:53;1.30;;;1.20;;
14472;SDS011;7322;50.872;4.386;2023-12-04T06:27:23;1.60;;;1.50;;
14472;SDS011;7322;50.872;4.386;2023-12-04T06:29:51;1.40;;;1.30;;
14472;SDS011;7322;50.872;4.386;2023-12-04T06:32:18;1.50;;;1.40;;
14472;SDS011;7322;50.872;4.386;2023-12-04T06:34:47;1.50;;;1.40;;
14472;SDS011;7322;50.872;4.386;2023-12-04T06:37:15;1.40;;;1.30;;
14472;SDS011;7322;50.872;4.386;2023-12-04T06:39:42;1.77;;;1.33;;
14472;SDS011;7322;50.872;4.386;2023-12-04T06:42:14;2.40;;;1.50;;
14472;SDS011;7322;50.872;4.386;2023-12-04T06:44:43;1.50;;;1.40;;
14472;SDS011;7322;50.872;4.386;2023-12-04T06:47:11;1.63;;;1.47;;
14472;SDS011;7322;50.872;4.386;2023-12-04T06:49:56;1.73;;;1.47;;
14472;SDS011;7322;50.872;4.386;2023-12-04T06:52:24;1.60;;;1.40;;
14472;SDS011;7322;50.872;4.386;2023-12-04T06:54:51;1.93;;;1.50;;
14472;SDS011;7322;50.872;4.386;2023-12-04T06:57:18;1.37;;;1.23;;
14472;SDS011;7322;50.872;4.386;2023-12-04T06:59:49;2.03;;;1.33;;
14472;SDS011;7322;50.872;4.386;2023-12-04T07:02:26;1.40;;;1.30;;
14472;SDS011;7322;50.872;4.386;2023-12-04T07:04:53;1.50;;;1.40;;
14472;SDS011;7322;50.872;4.386;2023-12-04T07:07:22;2.30;;;1.40;;
14472;SDS011;7322;50.872;4.386;2023-12-04T07:09:50;2.47;;;1.50;;
14472;SDS011;7322;50.872;4.386;2023-12-04T07:12:17;1.60;;;1.50;;
14472;SDS011;7322;50.872;4.386;2023-12-04T07:14:45;2.27;;;1.37;;
14472;SDS011;7322;50.872;4.386;2023-12-04T07:17:20;1.77;;;1.60;;
14472;SDS011;7322;50.872;4.386;2023-12-04T07:19:49;2.37;;;1.50;;
14472;SDS011;7322;50.872;4.386;2023-12-04T07:22:16;3.30;;;1.37;;
14472;SDS011;7322;50.872;4.386;2023-12-04T07:24:43;1.37;;;1.20;;
14472;SDS011;7322;50.872;4.386;2023-12-04T07:27:10;1.77;;;1.40;;
14472;SDS011;7322;50.872;4.386;2023-12-04T07:29:37;2.57;;;1.57;;
14472;SDS011;7322;50.872;4.386;2023-12-04T07:32:05;1.80;;;1.53;;
14472;SDS011;7322;50.872;4.386;2023-12-04T07:34:34;1.50;;;1.40;;
14472;SDS011;7322;50.872;4.386;2023-12-04T07:37:02;1.70;;;1.30;;
14472;SDS011;7322;50.872;4.386;2023-12-04T07:39:30;1.43;;;1.33;;
14472;SDS011;7322;50.872;4.386;2023-12-04T07:42:00;1.73;;;1.53;;
14472;SDS011;7322;50.872;4.386;2023-12-04T07:44:27;3.50;;;1.47;;
14472;SDS011;7322;50.872;4.386;2023-12-04T07:46:55;2.80;;;1.40;;
14472;SDS011;7322;50.872;4.386;2023-12-04T07:49:22;1.40;;;1.30;;
14472;SDS011;7322;50.872;4.386;2023-12-04T07:51:50;1.40;;;1.30;;
14472;SDS011;7322;50.872;4.386;2023-12-04T07:54:17;1.27;;;1.10;;
14472;SDS011;7322;50.872;4.386;2023-12-04T07:56:44;2.60;;;1.30;;
14472;SDS011;7322;50.872;4.386;2023-12-04T07:59:11;2.00;;;1.37;;
14472;SDS011;7322;50.872;4.386;2023-12-04T08:01:40;2.47;;;1.50;;
14472;SDS011;7322;50.872;4.386;2023-12-04T08:04:07;1.73;;;1.40;;
14472;SDS011;7322;50.872;4.386;2023-12-04T08:06:34;3.07;;;1.50;;
14472;SDS011;7322;50.872;4.386;2023-12-04T08:09:03;2.40;;;1.30;;
14472;SDS011;7322;50.872;4.386;2023-12-04T08:11:36;2.50;;;1.50;;
14472;SDS011;7322;50.872;4.386;2023-12-04T08:14:05;1.73;;;1.43;;
14472;SDS011;7322;50.872;4.386;2023-12-04T08:16:34;4.37;;;1.60;;
14472;SDS011;7322;50.872;4.386;2023-12-04T08:19:01;2.83;;;1.40;;
14472;SDS011;7322;50.872;4.386;2023-12-04T08:21:29;2.20;;;1.60;;
14472;SDS011;7322;50.872;4.386;2023-12-04T08:23:57;2.40;;;1.63;;
14472;SDS011;7322;50.872;4.386;2023-12-04T08:26:27;1.30;;;1.20;;
14472;SDS011;7322;50.872;4.386;2023-12-04T08:28:54;2.20;;;1.47;;
14472;SDS011;7322;50.872;4.386;2023-12-04T08:31:25;2.23;;;1.37;;
14472;SDS011;7322;50.872;4.386;2023-12-04T08:33:54;1.90;;;1.50;;
14472;SDS011;7322;50.872;4.386;2023-12-04T08:36:25;2.10;;;1.40;;
14472;SDS011;7322;50.872;4.386;2023-12-04T08:42:17;2.40;;;1.47;;
14472;SDS011;7322;50.872;4.386;2023-12-04T08:44:44;1.70;;;1.20;;
14472;SDS011;7322;50.872;4.386;2023-12-04T08:53:23;1.97;;;1.50;;
14472;SDS011;7322;50.872;4.386;2023-12-04T09:01:52;1.60;;;1.40;;
14472;SDS011;7322;50.872;4.386;2023-12-04T09:04:21;3.90;;;1.77;;
14472;SDS011;7322;50.872;4.386;2023-12-04T09:06:48;2.10;;;1.33;;
14472;SDS011;7322;50.872;4.386;2023-12-04T09:15:44;2.70;;;1.50;;
14472;SDS011;7322;50.872;4.386;2023-12-04T09:18:14;2.23;;;1.47;;
14472;SDS011;7322;50.872;4.386;2023-12-04T09:20:43;1.63;;;1.43;;
14472;SDS011;7322;50.872;4.386;2023-12-04T09:25:55;3.50;;;1.70;;
14472;SDS011;7322;50.872;4.386;2023-12-04T09:28:27;3.40;;;1.33;;
14472;SDS011;7322;50.872;4.386;2023-12-04T09:30:54;3.03;;;1.63;;
14472;SDS011;7322;50.872;4.386;2023-12-04T09:33:23;1.50;;;1.30;;
14472;SDS011;7322;50.872;4.386;2023-12-04T09:35:50;2.10;;;1.40;;
14472;SDS011;7322;50.872;4.386;2023-12-04T09:38:18;2.60;;;1.53;;
14472;SDS011;7322;50.872;4.386;2023-12-04T09:40:45;1.60;;;1.50;;
14472;SDS011;7322;50.872;4.386;2023-12-04T09:43:12;1.67;;;1.40;;
14472;SDS011;7322;50.872;4.386;2023-12-04T09:45:40;1.73;;;1.40;;
14472;SDS011;7322;50.872;4.386;2023-12-04T09:48:08;2.43;;;1.53;;
14472;SDS011;7322;50.872;4.386;2023-12-04T09:50:38;1.50;;;1.40;;
14472;SDS011;7322;50.872;4.386;2023-12-04T09:53:06;3.20;;;1.50;;
14472;SDS011;7322;50.872;4.386;2023-12-04T09:55:38;1.53;;;1.40;;
14472;SDS011;7322;50.872;4.386;2023-12-04T09:58:06;2.67;;;1.60;;
14472;SDS011;7322;50.872;4.386;2023-12-04T10:00:34;1.40;;;1.30;;
14472;SDS011;7322;50.872;4.386;2023-12-04T10:03:02;1.73;;;1.50;;
14472;SDS011;7322;50.872;4.386;2023-12-04T10:05:31;2.03;;;1.33;;
14472;SDS011;7322;50.872;4.386;2023-12-04T10:08:05;2.57;;;1.30;;
14472;SDS011;7322;50.872;4.386;2023-12-04T10:10:33;2.60;;;1.53;;
14472;SDS011;7322;50.872;4.386;2023-12-04T10:13:02;1.90;;;1.53;;
14472;SDS011;7322;50.872;4.386;2023-12-04T10:15:38;1.93;;;1.57;;
14472;SDS011;7322;50.872;4.386;2023-12-04T10:20:58;1.80;;;1.40;;
14472;SDS011;7322;50.872;4.386;2023-12-04T10:23:41;1.67;;;1.57;;
14472;SDS011;7322;50.872;4.386;2023-12-04T10:26:11;1.57;;;1.47;;
14472;SDS011;7322;50.872;4.386;2023-12-04T10:28:58;2.40;;;1.60;;
14472;SDS011;7322;50.872;4.386;2023-12-04T10:31:25;1.50;;;1.40;;
14472;SDS011;7322;50.872;4.386;2023-12-04T10:33:52;1.50;;;1.40;;
14472;SDS011;7322;50.872;4.386;2023-12-04T10:36:20;1.57;;;1.47;;
14472;SDS011;7322;50.872;4.386;2023-12-04T10:38:49;2.00;;;1.40;;
14472;SDS011;7322;50.872;4.386;2023-12-04T10:41:25;2.00;;;1.40;;
14472;SDS011;7322;50.872;4.386;2023-12-04T10:43:53;2.00;;;1.57;;
14472;SDS011;7322;50.872;4.386;2023-12-04T10:46:22;1.80;;;1.37;;
14472;SDS011;7322;50.872;4.386;2023-12-04T10:48:51;1.40;;;1.30;;
14472;SDS011;7322;50.872;4.386;2023-12-04T10:51:19;2.27;;;1.40;;
14472;SDS011;7322;50.872;4.386;2023-12-04T10:53:49;2.87;;;1.70;;
14472;SDS011;7322;50.872;4.386;2023-12-04T10:56:18;1.57;;;1.30;;
14472;SDS011;7322;50.872;4.386;2023-12-04T10:58:51;1.50;;;1.40;;
14472;SDS011;7322;50.872;4.386;2023-12-04T11:01:20;2.17;;;1.60;;
14472;SDS011;7322;50.872;4.386;2023-12-04T11:03:51;1.53;;;1.43;;
14472;SDS011;7322;50.872;4.386;2023-12-04T11:06:20;1.43;;;1.30;;
14472;SDS011;7322;50.872;4.386;2023-12-04T11:08:51;1.57;;;1.47;;
14472;SDS011;7322;50.872;4.386;2023-12-04T11:11:24;2.20;;;1.50;;
14472;SDS011;7322;50.872;4.386;2023-12-04T11:13:58;1.70;;;1.40;;
14472;SDS011;7322;50.872;4.386;2023-12-04T11:16:29;2.33;;;1.37;;
14472;SDS011;7322;50.872;4.386;2023-12-04T11:19:03;1.70;;;1.50;;
14472;SDS011;7322;50.872;4.386;2023-12-04T11:21:39;2.80;;;1.30;;
14472;SDS011;7322;50.872;4.386;2023-12-04T11:24:10;1.93;;;1.37;;
14472;SDS011;7322;50.872;4.386;2023-12-04T11:26:40;1.43;;;1.33;;
14472;SDS011;7322;50.872;4.386;2023-12-04T11:29:08;1.80;;;1.47;;
14472;SDS011;7322;50.872;4.386;2023-12-04T11:31:38;2.50;;;1.70;;
14472;SDS011;7322;50.872;4.386;2023-12-04T11:34:07;1.73;;;1.60;;
14472;SDS011;7322;50.872;4.386;2023-12-04T11:36:37;1.67;;;1.50;;
14472;SDS011;7322;50.872;4.386;2023-12-04T11:39:08;1.50;;;1.40;;
14472;SDS011;7322;50.872;4.386;2023-12-04T11:41:37;2.20;;;1.40;;
14472;SDS011;7322;50.872;4.386;2023-12-04T11:44:11;2.07;;;1.80;;
14472;SDS011;7322;50.872;4.386;2023-12-04T11:46:54;1.93;;;1.33;;
14472;SDS011;7322;50.872;4.386;2023-12-04T11:49:28;1.50;;;1.40;;
14472;SDS011;7322;50.872;4.386;2023-12-04T11:51:56;1.67;;;1.30;;
14472;SDS011;7322;50.872;4.386;2023-12-04T11:54:25;1.17;;;1.07;;
14472;SDS011;7322;50.872;4.386;2023-12-04T11:59:50;2.50;;;1.40;;
14472;SDS011;7322;50.872;4.386;2023-12-04T12:02:18;2.10;;;1.67;;
14472;SDS011;7322;50.872;4.386;2023-12-04T12:04:46;2.10;;;1.40;;
14472;SDS011;7322;50.872;4.386;2023-12-04T12:07:19;1.20;;;1.10;;
14472;SDS011;7322;50.872;4.386;2023-12-04T12:09:49;1.87;;;1.50;;
14472;SDS011;7322;50.872;4.386;2023-12-04T12:12:16;1.60;;;1.40;;
14472;SDS011;7322;50.872;4.386;2023-12-04T12:14:45;2.83;;;1.53;;
14472;SDS011;7322;50.872;4.386;2023-12-04T12:17:13;1.67;;;1.40;;
14472;SDS011;7322;50.872;4.386;2023-12-04T12:19:40;1.40;;;1.30;;
14472;SDS011;7322;50.872;4.386;2023-12-04T12:22:07;1.80;;;1.43;;
14472;SDS011;7322;50.872;4.386;2023-12-04T12:24:34;1.50;;;1.37;;
14472;SDS011;7322;50.872;4.386;2023-12-04T12:27:03;1.40;;;1.30;;
14472;SDS011;7322;50.872;4.386;2023-12-04T12:29:31;2.93;;;1.90;;
14472;SDS011;7322;50.872;4.386;2023-12-04T12:32:00;1.50;;;1.30;;
14472;SDS011;7322;50.872;4.386;2023-12-04T12:34:28;1.93;;;1.40;;
14472;SDS011;7322;50.872;4.386;2023-12-04T12:36:56;2.73;;;1.60;;
14472;SDS011;7322;50.872;4.386;2023-12-04T12:39:24;2.47;;;1.50;;
14472;SDS011;7322;50.872;4.386;2023-12-04T12:41:52;1.60;;;1.50;;
14472;SDS011;7322;50.872;4.386;2023-12-04T12:44:19;3.00;;;1.50;;
14472;SDS011;7322;50.872;4.386;2023-12-04T12:46:54;1.53;;;1.43;;
14472;SDS011;7322;50.872;4.386;2023-12-04T12:49:22;2.37;;;1.50;;
14472;SDS011;7322;50.872;4.386;2023-12-04T12:51:49;1.30;;;1.20;;
14472;SDS011;7322;50.872;4.386;2023-12-04T12:54:16;1.73;;;1.57;;
14472;SDS011;7322;50.872;4.386;2023-12-04T12:56:44;2.00;;;1.53;;
14472;SDS011;7322;50.872;4.386;2023-12-04T12:59:11;1.57;;;1.47;;
14472;SDS011;7322;50.872;4.386;2023-12-04T13:01:38;1.50;;;1.40;;
14472;SDS011;7322;50.872;4.386;2023-12-04T13:04:05;1.73;;;1.40;;
14472;SDS011;7322;50.872;4.386;2023-12-04T13:06:34;1.50;;;1.40;;
14472;SDS011;7322;50.872;4.386;2023-12-04T13:09:02;2.00;;;1.40;;
14472;SDS011;7322;50.872;4.386;2023-12-04T13:11:31;2.43;;;1.40;;
14472;SDS011;7322;50.872;4.386;2023-12-04T13:13:58;1.73;;;1.30;;
14472;SDS011;7322;50.872;4.386;2023-12-04T13:16:25;1.90;;;1.60;;
14472;SDS011;7322;50.872;4.386;2023-12-04T13:18:52;1.63;;;1.30;;
14472;SDS011;7322;50.872;4.386;2023-12-04T13:21:20;1.50;;;1.40;;
14472;SDS011;7322;50.872;4.386;2023-12-04T13:23:49;1.37;;;1.23;;
14472;SDS011;7322;50.872;4.386;2023-12-04T13:26:16;1.33;;;1.23;;
14472;SDS011;7322;50.872;4.386;2023-12-04T13:28:43;1.40;;;1.30;;
14472;SDS011;7322;50.872;4.386;2023-12-04T13:31:10;1.57;;;1.30;;
14472;SDS011;7322;50.872;4.386;2023-12-04T13:33:37;1.50;;;1.40;;
14472;SDS011;7322;50.872;4.386;2023-12-04T13:36:05;1.93;;;1.40;;
14472;SDS011;7322;50.872;4.386;2023-12-04T13:38:33;1.20;;;1.10;;
14472;SDS011;7322;50.872;4.386;2023-12-04T13:41:04;1.90;;;1.70;;
14472;SDS011;7322;50.872;4.386;2023-12-04T13:43:55;1.70;;;1.50;;
14472;SDS011;7322;50.872;4.386;2023-12-04T13:46:22;1.50;;;1.33;;
14472;SDS011;7322;50.872;4.386;2023-12-04T13:48:49;2.33;;;1.60;;
14472;SDS011;7322;50.872;4.386;2023-12-04T13:51:16;1.47;;;1.27;;
14472;SDS011;7322;50.872;4.386;2023-12-04T13:53:45;2.80;;;1.30;;
14472;SDS011;7322;50.872;4.386;2023-12-04T13:56:19;1.60;;;1.40;;
14472;SDS011;7322;50.872;4.386;2023-12-04T13:59:09;1.40;;;1.30;;
14472;SDS011;7322;50.872;4.386;2023-12-04T14:01:45;1.70;;;1.50;;
14472;SDS011;7322;50.872;4.386;2023-12-04T14:04:17;1.60;;;1.40;;
14472;SDS011;7322;50.872;4.386;2023-12-04T14:06:45;1.50;;;1.40;;
14472;SDS011;7322;50.872;4.386;2023-12-04T14:09:12;2.00;;;1.43;;
14472;SDS011;7322;50.872;4.386;2023-12-04T14:11:43;1.40;;;1.30;;
14472;SDS011;7322;50.872;4.386;2023-12-04T14:14:13;1.43;;;1.33;;
14472;SDS011;7322;50.872;4.386;2023-12-04T14:16:41;1.20;;;1.10;;
14472;SDS011;7322;50.872;4.386;2023-12-04T14:19:11;1.37;;;1.27;;
14472;SDS011;7322;50.872;4.386;2023-12-04T14:21:40;1.40;;;1.30;;
14472;SDS011;7322;50.872;4.386;2023-12-04T14:24:07;1.40;;;1.30;;
14472;SDS011;7322;50.872;4.386;2023-12-04T14:26:34;1.40;;;1.30;;
14472;SDS011;7322;50.872;4.386;2023-12-04T14:29:04;1.57;;;1.23;;
14472;SDS011;7322;50.872;4.386;2023-12-04T14:31:33;1.70;;;1.33;;
14472;SDS011;7322;50.872;4.386;2023-12-04T14:34:00;1.30;;;1.17;;
14472;SDS011;7322;50.872;4.386;2023-12-04T14:36:28;1.80;;;1.40;;
14472;SDS011;7322;50.872;4.386;2023-12-04T14:38:59;1.70;;;1.60;;
14472;SDS011;7322;50.872;4.386;2023-12-04T14:41:44;1.80;;;1.60;;
14472;SDS011;7322;50.872;4.386;2023-12-04T14:44:12;1.77;;;1.50;;
14472;SDS011;7322;50.872;4.386;2023-12-04T14:46:39;1.40;;;1.30;;
14472;SDS011;7322;50.872;4.386;2023-12-04T14:49:06;1.40;;;1.30;;
14472;SDS011;7322;50.872;4.386;2023-12-04T14:51:33;1.30;;;1.20;;
14472;SDS011;7322;50.872;4.386;2023-12-04T14:54:00;1.50;;;1.40;;
14472;SDS011;7322;50.872;4.386;2023-12-04T14:56:40;1.20;;;1.10;;
14472;SDS011;7322;50.872;4.386;2023-12-04T14:59:26;1.37;;;1.10;;
14472;SDS011;7322;50.872;4.386;2023-12-04T15:02:11;1.30;;;1.20;;
14472;SDS011;7322;50.872;4.386;2023-12-04T15:05:11;1.33;;;1.23;;
14472;SDS011;7322;50.872;4.386;2023-12-04T15:08:16;1.50;;;1.37;;
14472;SDS011;7322;50.872;4.386;2023-12-04T15:11:06;1.40;;;1.30;;
14472;SDS011;7322;50.872;4.386;2023-12-04T15:14:11;1.30;;;1.10;;
14472;SDS011;7322;50.872;4.386;2023-12-04T15:16:59;1.10;;;1.00;;
14472;SDS011;7322;50.872;4.386;2023-12-04T15:19:41;1.73;;;1.20;;
14472;SDS011;7322;50.872;4.386;2023-12-04T15:22:23;1.20;;;1.10;;
14472;SDS011;7322;50.872;4.386;2023-12-04T15:24:51;1.40;;;1.30;;
14472;SDS011;7322;50.872;4.386;2023-12-04T15:27:18;1.73;;;1.40;;
14472;SDS011;7322;50.872;4.386;2023-12-04T15:29:44;1.90;;;1.50;;
14472;SDS011;7322;50.872;4.386;2023-12-04T15:32:14;1.40;;;1.30;;
14472;SDS011;7322;50.872;4.386;2023-12-04T15:34:41;1.30;;;1.20;;
14472;SDS011;7322;50.872;4.386;2023-12-04T15:37:16;1.77;;;1.33;;
14472;SDS011;7322;50.872;4.386;2023-12-04T15:39:42;2.03;;;1.40;;
14472;SDS011;7322;50.872;4.386;2023-12-04T15:42:17;1.33;;;1.00;;
14472;SDS011;7322;50.872;4.386;2023-12-04T15:44:46;1.40;;;1.10;;
14472;SDS011;7322;50.872;4.386;2023-12-04T15:47:13;1.40;;;1.30;;
14472;SDS011;7322;50.872;4.386;2023-12-04T15:49:40;1.20;;;1.10;;
14472;SDS011;7322;50.872;4.386;2023-12-04T15:52:07;1.43;;;1.20;;
14472;SDS011;7322;50.872;4.386;2023-12-04T15:54:34;1.63;;;1.20;;
14472;SDS011;7322;50.872;4.386;2023-12-04T15:57:00;1.30;;;1.20;;
14472;SDS011;7322;50.872;4.386;2023-12-04T15:59:29;2.00;;;1.43;;
14472;SDS011;7322;50.872;4.386;2023-12-04T16:01:55;1.30;;;1.20;;
14472;SDS011;7322;50.872;4.386;2023-12-04T16:04:25;1.40;;;1.10;;
14472;SDS011;7322;50.872;4.386;2023-12-04T16:06:53;0.90;;;0.90;;
14472;SDS011;7322;50.872;4.386;2023-12-04T16:09:20;1.20;;;1.10;;
14472;SDS011;7322;50.872;4.386;2023-12-04T16:11:47;1.53;;;1.30;;
14472;SDS011;7322;50.872;4.386;2023-12-04T16:14:15;1.80;;;1.37;;
14472;SDS011;7322;50.872;4.386;2023-12-04T16:16:42;1.40;;;1.30;;
14472;SDS011;7322;50.872;4.386;2023-12-04T16:19:10;1.30;;;1.10;;
14472;SDS011;7322;50.872;4.386;2023-12-04T16:21:38;1.87;;;1.10;;
14472;SDS011;7322;50.872;4.386;2023-12-04T16:24:06;1.27;;;1.17;;
14472;SDS011;7322;50.872;4.386;2023-12-04T16:26:36;1.60;;;1.40;;
14472;SDS011;7322;50.872;4.386;2023-12-04T16:29:03;1.17;;;1.07;;
14472;SDS011;7322;50.872;4.386;2023-12-04T16:31:32;1.97;;;1.40;;
14472;SDS011;7322;50.872;4.386;2023-12-04T16:34:00;1.67;;;1.27;;
14472;SDS011;7322;50.872;4.386;2023-12-04T16:36:27;1.40;;;1.30;;
14472;SDS011;7322;50.872;4.386;2023-12-04T16:38:56;1.13;;;1.03;;
14472;SDS011;7322;50.872;4.386;2023-12-04T16:41:24;1.70;;;1.13;;
14472;SDS011;7322;50.872;4.386;2023-12-04T16:43:51;1.67;;;1.20;;
14472;SDS011;7322;50.872;4.386;2023-12-04T16:46:18;1.40;;;1.30;;
14472;SDS011;7322;50.872;4.386;2023-12-04T16:48:46;1.30;;;1.10;;
14472;SDS011;7322;50.872;4.386;2023-12-04T16:51:14;1.20;;;1.10;;
14472;SDS011;7322;50.872;4.386;2023-12-04T16:53:41;1.33;;;1.13;;
14472;SDS011;7322;50.872;4.386;2023-12-04T16:56:14;1.83;;;1.30;;
14472;SDS011;7322;50.872;4.386;2023-12-04T16:58:42;1.30;;;1.17;;
14472;SDS011;7322;50.872;4.386;2023-12-04T17:01:09;1.33;;;1.10;;
14472;SDS011;7322;50.872;4.386;2023-12-04T17:03:36;2.53;;;1.37;;
14472;SDS011;7322;50.872;4.386;2023-12-04T17:06:04;1.10;;;1.00;;
14472;SDS011;7322;50.872;4.386;2023-12-04T17:08:33;1.37;;;1.27;;
14472;SDS011;7322;50.872;4.386;2023-12-04T17:11:00;1.30;;;1.20;;
14472;SDS011;7322;50.872;4.386;2023-12-04T17:13:29;1.30;;;1.20;;
14472;SDS011;7322;50.872;4.386;2023-12-04T17:15:57;1.47;;;1.20;;
14472;SDS011;7322;50.872;4.386;2023-12-04T17:18:25;1.30;;;1.20;;
14472;SDS011;7322;50.872;4.386;2023-12-04T17:20:52;1.60;;;1.30;;